Dades meteomassalio
Diari Summary for Diciembre 28, 2017 Units:  English    Metric   Both
« Previous Day
Next Day »
Diari Semanal Mensual Anual Personalitzat
  Maxima: Minima: Mijana:
Temperatura: TemperatureC °F 5.0 °F 7.8 °F
Rosada: DewpointC °F 0.4 °F 3.2 °F
Humitat: Humidity % 67 % 73 %
Velocitat del vent: WindSpeedKMH mph 0.0 mph 14.5 mph
Racha vent: WindSpeedGustKMH mph - -
Vent:- - NW
Pressio: PressurehPa in 1010.4 in -
Pluja: 0.0 in    
Historical Graphs
 
 
Tabular Data for Diciembre 28, 2017
Time Temperature Dew Point Pressure Wind Wind Speed Wind Gust Humidity Rainfall Rate (Hourly) solar Conditions
TemperatureC °F DewpointC °F PressurehPa in Calm     Humidity % HourlyPrecipMM in SolarRadiationWatts/m^2 W/m2 Conditions
00:02 7.2 °F 1.7 °F 1013.8 in North 29.6 mph 29.6 mph 68 % 0.0 in 0.0 W/m2 RA
00:03 7.2 °F 1.7 °F 1013.8 in NNW 29.6 mph 29.6 mph 68 % 0.0 in 0.0 W/m2 RA
00:06 7.2 °F 1.7 °F 1013.8 in NW 20.4 mph 20.4 mph 68 % 0.0 in 0.0 W/m2 CLR
00:09 7.2 °F 1.7 °F 1013.8 in North 22.2 mph 22.2 mph 68 % 0.0 in 0.0 W/m2 CLR
00:13 6.7 °F 1.2 °F 1013.8 in NW 22.2 mph 22.2 mph 68 % 0.0 in 0.0 W/m2 CLR
00:17 6.7 °F 1.2 °F 1013.8 in NW 24.1 mph 24.1 mph 68 % 0.0 in 0.0 W/m2 CLR
00:22 6.7 °F 1.2 °F 1013.8 in NW 18.5 mph 18.5 mph 68 % 0.0 in 0.0 W/m2 CLR
00:23 6.7 °F 1.2 °F 1013.8 in NW 22.5 mph 22.5 mph 68 % 0.0 in 0.0 W/m2 CLR
00:27 6.7 °F 1.2 °F 1013.4 in NNW 18.5 mph 18.5 mph 68 % 0.0 in 0.0 W/m2 CLR
00:28 6.7 °F 1.2 °F 1013.4 in NNW 18.5 mph 18.5 mph 68 % 0.0 in 0.0 W/m2 CLR
00:32 6.7 °F 1.2 °F 1013.8 in NW 14.8 mph 14.8 mph 68 % 0.0 in 0.0 W/m2 CLR
00:34 6.7 °F 1.4 °F 1013.4 in NNW 16.7 mph 16.7 mph 69 % 0.0 in 0.0 W/m2 CLR
00:39 6.7 °F 1.2 °F 1013.4 in NW 14.8 mph 14.8 mph 68 % 0.0 in 0.0 W/m2 CLR
00:40 6.7 °F 1.2 °F 1013.4 in NNW 19.3 mph 19.3 mph 68 % 0.0 in 0.0 W/m2 CLR
00:43 6.7 °F 1.2 °F 1013.4 in NNW 24.1 mph 24.1 mph 68 % 0.0 in 0.0 W/m2 CLR
00:46 6.7 °F 1.4 °F 1013.4 in NW 24.1 mph 24.1 mph 69 % 0.0 in 0.0 W/m2 CLR
00:51 6.7 °F 1.2 °F 1013.4 in NNW 24.1 mph 24.1 mph 68 % 0.0 in 0.0 W/m2 CLR
00:53 6.7 °F 1.4 °F 1013.4 in NW 18.5 mph 18.5 mph 69 % 0.0 in 0.0 W/m2 CLR
00:58 6.7 °F 1.2 °F 1013.1 in NNW 22.5 mph 22.5 mph 68 % 0.0 in 0.0 W/m2 CLR
01:03 6.7 °F 1.4 °F 1013.1 in NW 24.1 mph 24.1 mph 69 % 0.0 in 0.0 W/m2 CLR
01:04 6.7 °F 1.4 °F 1013.4 in NNW 22.2 mph 22.2 mph 69 % 0.0 in 0.0 W/m2 CLR
01:08 6.7 °F 1.4 °F 1013.4 in NW 18.5 mph 18.5 mph 69 % 0.0 in 0.0 W/m2 CLR
01:10 6.7 °F 1.6 °F 1013.4 in NW 20.4 mph 20.4 mph 70 % 0.0 in 0.0 W/m2 CLR
01:13 6.7 °F 1.8 °F 1013.4 in NW 18.5 mph 18.5 mph 71 % 0.0 in 0.0 W/m2 CLR
01:15 6.7 °F 1.8 °F 1013.1 in NW 14.8 mph 14.8 mph 71 % 0.0 in 0.0 W/m2 CLR
01:19 6.7 °F 1.8 °F 1013.4 in NNW 19.3 mph 19.3 mph 71 % 0.0 in 0.0 W/m2 CLR
01:24 6.7 °F 1.8 °F 1013.1 in NNW 18.5 mph 18.5 mph 71 % 0.0 in 0.0 W/m2 CLR
01:28 6.7 °F 2.0 °F 1013.4 in NW 18.5 mph 18.5 mph 72 % 0.0 in 0.0 W/m2 CLR
01:33 6.7 °F 1.8 °F 1013.4 in North 31.5 mph 31.5 mph 71 % 0.0 in 0.0 W/m2 CLR
01:38 6.7 °F 1.8 °F 1013.4 in NNW 24.1 mph 24.1 mph 71 % 0.0 in 0.0 W/m2 CLR
01:39 6.7 °F 1.8 °F 1013.4 in NW 18.5 mph 18.5 mph 71 % 0.0 in 0.0 W/m2 CLR
01:44 6.7 °F 1.6 °F 1013.4 in NW 24.1 mph 24.1 mph 70 % 0.0 in 0.0 W/m2 CLR
01:45 6.7 °F 1.8 °F 1013.1 in NW 24.1 mph 24.1 mph 71 % 0.0 in 0.0 W/m2 CLR
01:47 6.7 °F 1.6 °F 1013.1 in NW 29.6 mph 29.6 mph 70 % 0.0 in 0.0 W/m2 CLR
01:51 6.7 °F 1.6 °F 1013.1 in NNW 29.6 mph 29.6 mph 70 % 0.0 in 0.0 W/m2 CLR
01:52 6.7 °F 1.6 °F 1013.1 in NW 29.6 mph 29.6 mph 70 % 0.0 in 0.0 W/m2 CLR
01:56 6.7 °F 1.6 °F 1012.8 in NNW 16.7 mph 16.7 mph 70 % 0.0 in 0.0 W/m2 CLR
02:01 7.2 °F 2.1 °F 1012.8 in NNW 31.5 mph 31.5 mph 70 % 0.0 in 0.0 W/m2 CLR
02:02 7.2 °F 2.1 °F 1012.8 in NNW 31.5 mph 31.5 mph 70 % 0.0 in 0.0 W/m2 CLR
02:07 7.2 °F 2.1 °F 1012.8 in North 29.6 mph 29.6 mph 70 % 0.0 in 0.0 W/m2 CLR
02:08 7.2 °F 2.1 °F 1012.8 in NNW 27.4 mph 27.4 mph 70 % 0.0 in 0.0 W/m2 CLR
02:09 7.2 °F 1.9 °F 1012.8 in NW 27.8 mph 27.8 mph 69 % 0.0 in 0.0 W/m2 CLR
02:13 7.2 °F 1.9 °F 1012.8 in NNW 33.3 mph 33.3 mph 69 % 0.0 in 0.0 W/m2 CLR
02:15 7.2 °F 1.9 °F 1012.8 in NNW 33.3 mph 33.3 mph 69 % 0.0 in 0.0 W/m2 CLR
02:19 7.2 °F 1.9 °F 1012.8 in North 25.9 mph 25.9 mph 69 % 0.0 in 0.0 W/m2 CLR
02:24 7.2 °F 1.9 °F 1012.8 in North 29.0 mph 29.0 mph 69 % 0.0 in 0.0 W/m2 CLR
02:25 7.2 °F 1.9 °F 1012.8 in North 27.4 mph 27.4 mph 69 % 0.0 in 0.0 W/m2 CLR
02:30 7.2 °F 1.9 °F 1012.8 in NNW 29.6 mph 29.6 mph 69 % 0.0 in 0.0 W/m2 CLR
02:35 7.2 °F 1.9 °F 1012.8 in NNW 25.9 mph 25.9 mph 69 % 0.0 in 0.0 W/m2 CLR
02:36 7.2 °F 1.9 °F 1012.8 in NNW 29.6 mph 29.6 mph 69 % 0.0 in 0.0 W/m2 CLR
02:41 6.7 °F 1.4 °F 1012.8 in North 31.5 mph 31.5 mph 69 % 0.0 in 0.0 W/m2 CLR
02:43 6.7 °F 1.4 °F 1012.8 in North 22.2 mph 22.2 mph 69 % 0.0 in 0.0 W/m2 CLR
02:47 6.7 °F 1.6 °F 1012.8 in NNW 20.4 mph 20.4 mph 70 % 0.0 in 0.0 W/m2 CLR
02:52 6.7 °F 1.6 °F 1012.8 in NNW 24.1 mph 24.1 mph 70 % 0.0 in 0.0 W/m2 CLR
02:53 6.7 °F 1.6 °F 1012.8 in North 27.4 mph 27.4 mph 70 % 0.0 in 0.0 W/m2 CLR
02:58 6.7 °F 1.6 °F 1012.8 in NNW 25.9 mph 25.9 mph 70 % 0.0 in 0.0 W/m2 CLR
03:00 6.7 °F 1.6 °F 1012.8 in North 30.6 mph 30.6 mph 70 % 0.0 in 0.0 W/m2 CLR
03:05 6.7 °F 1.6 °F 1012.8 in North 37.0 mph 37.0 mph 70 % 0.0 in 0.0 W/m2 CLR
03:06 6.7 °F 1.8 °F 1012.8 in NNW 27.8 mph 27.8 mph 71 % 0.0 in 0.0 W/m2 CLR
03:11 6.7 °F 1.8 °F 1012.8 in NNW 25.9 mph 25.9 mph 71 % 0.0 in 0.0 W/m2 CLR
03:14 6.7 °F 2.0 °F 1012.8 in NNW 20.4 mph 20.4 mph 72 % 0.0 in 0.0 W/m2 CLR
03:19 6.7 °F 2.0 °F 1012.8 in NNW 20.4 mph 20.4 mph 72 % 0.0 in 0.0 W/m2 CLR
03:20 6.7 °F 2.0 °F 1012.8 in NW 20.4 mph 20.4 mph 72 % 0.0 in 0.0 W/m2 CLR
03:21 6.7 °F 2.0 °F 1012.8 in North 24.1 mph 24.1 mph 72 % 0.0 in 0.0 W/m2 CLR
03:25 6.1 °F 1.4 °F 1012.8 in NNW 18.5 mph 18.5 mph 72 % 0.0 in 0.0 W/m2 CLR
03:30 6.1 °F 1.4 °F 1012.4 in NW 22.2 mph 22.2 mph 72 % 0.0 in 0.0 W/m2 CLR
03:31 6.1 °F 1.4 °F 1012.4 in NW 22.2 mph 22.2 mph 72 % 0.0 in 0.0 W/m2 CLR
03:33 6.1 °F 1.4 °F 1012.4 in NW 22.2 mph 22.2 mph 72 % 0.0 in 0.0 W/m2 CLR
03:37 6.1 °F 1.4 °F 1012.4 in NNW 18.5 mph 18.5 mph 72 % 0.0 in 0.0 W/m2 CLR
03:42 6.1 °F 1.4 °F 1012.4 in NNW 20.4 mph 20.4 mph 72 % 0.0 in 0.0 W/m2 CLR
03:43 6.1 °F 1.4 °F 1012.4 in NNW 20.4 mph 20.4 mph 72 % 0.0 in 0.0 W/m2 CLR
03:48 6.1 °F 1.4 °F 1012.4 in NW 22.2 mph 22.2 mph 72 % 0.0 in 0.0 W/m2 CLR
03:53 6.1 °F 1.6 °F 1012.4 in NW 20.4 mph 20.4 mph 73 % 0.0 in 0.0 W/m2 CLR
03:55 6.1 °F 1.6 °F 1012.4 in NW 20.4 mph 20.4 mph 73 % 0.0 in 0.0 W/m2 CLR
03:57 6.1 °F 1.6 °F 1012.4 in NNW 18.5 mph 18.5 mph 73 % 0.0 in 0.0 W/m2 CLR
04:02 6.1 °F 1.6 °F 1012.8 in NNW 16.7 mph 16.7 mph 73 % 0.0 in 0.0 W/m2 CLR
04:06 6.1 °F 1.6 °F 1012.8 in North 20.9 mph 20.9 mph 73 % 0.0 in 0.0 W/m2 CLR
04:11 6.1 °F 1.6 °F 1012.8 in NW 19.3 mph 19.3 mph 73 % 0.0 in 0.0 W/m2 CLR
04:17 6.1 °F 1.6 °F 1012.8 in NW 14.8 mph 14.8 mph 73 % 0.0 in 0.0 W/m2 CLR
04:21 6.1 °F 1.6 °F 1012.8 in NW 18.5 mph 18.5 mph 73 % 0.0 in 0.0 W/m2 CLR
04:26 6.1 °F 1.6 °F 1012.8 in NNW 16.7 mph 16.7 mph 73 % 0.0 in 0.0 W/m2 CLR
04:31 6.1 °F 1.6 °F 1012.8 in NW 22.2 mph 22.2 mph 73 % 0.0 in 0.0 W/m2 CLR
04:32 6.1 °F 1.6 °F 1012.8 in North 22.2 mph 22.2 mph 73 % 0.0 in 0.0 W/m2 CLR
04:33 6.1 °F 1.6 °F 1012.8 in NW 16.7 mph 16.7 mph 73 % 0.0 in 0.0 W/m2 CLR
04:37 6.1 °F 1.6 °F 1012.8 in NW 14.8 mph 14.8 mph 73 % 0.0 in 0.0 W/m2 CLR
04:41 6.1 °F 1.6 °F 1012.8 in NNW 11.1 mph 11.1 mph 73 % 0.0 in 0.0 W/m2 CLR
04:43 6.1 °F 1.6 °F 1012.8 in NW 13.0 mph 13.0 mph 73 % 0.0 in 0.0 W/m2 CLR
04:46 6.1 °F 1.8 °F 1012.4 in NW 13.0 mph 13.0 mph 74 % 0.0 in 0.0 W/m2 CLR
04:49 6.1 °F 1.6 °F 1012.4 in NW 11.1 mph 11.1 mph 73 % 0.0 in 0.0 W/m2 CLR
04:54 5.6 °F 1.1 °F 1012.4 in WNW 14.8 mph 14.8 mph 73 % 0.0 in 0.0 W/m2 CLR
04:55 5.6 °F 1.1 °F 1012.4 in NW 14.8 mph 14.8 mph 73 % 0.0 in 0.0 W/m2 CLR
04:58 5.6 °F 1.1 °F 1012.4 in NW 13.0 mph 13.0 mph 73 % 0.0 in 0.0 W/m2 CLR
05:02 5.6 °F 1.1 °F 1012.4 in NW 14.8 mph 14.8 mph 73 % 0.0 in 0.0 W/m2 CLR
05:07 5.6 °F 1.1 °F 1012.4 in WNW 16.7 mph 16.7 mph 73 % 0.0 in 0.0 W/m2 CLR
05:08 5.6 °F 1.1 °F 1012.4 in NW 16.7 mph 16.7 mph 73 % 0.0 in 0.0 W/m2 CLR
05:09 5.6 °F 1.1 °F 1012.4 in NW 18.5 mph 18.5 mph 73 % 0.0 in 0.0 W/m2 CLR
05:14 5.6 °F 1.1 °F 1012.4 in WNW 14.8 mph 14.8 mph 73 % 0.0 in 0.0 W/m2 CLR
05:16 5.6 °F 1.1 °F 1012.4 in WNW 18.5 mph 18.5 mph 73 % 0.0 in 0.0 W/m2 CLR
05:17 5.6 °F 1.1 °F 1012.4 in WNW 16.7 mph 16.7 mph 73 % 0.0 in 0.0 W/m2 CLR
05:22 5.6 °F 0.9 °F 1012.1 in NW 16.7 mph 16.7 mph 72 % 0.0 in 0.0 W/m2 CLR
05:24 5.6 °F 0.9 °F 1012.1 in NW 13.0 mph 13.0 mph 72 % 0.0 in 0.0 W/m2 CLR
05:27 5.6 °F 0.9 °F 1012.4 in NW 16.7 mph 16.7 mph 72 % 0.0 in 0.0 W/m2 CLR
05:31 5.6 °F 0.9 °F 1012.1 in NW 16.7 mph 16.7 mph 72 % 0.0 in 0.0 W/m2 CLR
05:34 5.6 °F 0.9 °F 1012.1 in NW 20.4 mph 20.4 mph 72 % 0.0 in 0.0 W/m2 CLR
05:37 5.6 °F 1.1 °F 1012.1 in NW 11.1 mph 11.1 mph 73 % 0.0 in 0.0 W/m2 CLR
05:40 5.0 °F 0.6 °F 1012.1 in WNW 14.8 mph 14.8 mph 73 % 0.0 in 0.0 W/m2 CLR
05:42 5.0 °F 0.6 °F 1012.1 in NW 14.8 mph 14.8 mph 73 % 0.0 in 0.0 W/m2 CLR
05:47 5.0 °F 0.4 °F 1012.1 in NW 16.1 mph 16.1 mph 72 % 0.0 in 0.0 W/m2 CLR
05:49 5.0 °F 0.6 °F 1012.1 in NW 16.7 mph 16.7 mph 73 % 0.0 in 0.0 W/m2 CLR
05:53 5.0 °F 0.6 °F 1012.1 in NW 18.5 mph 18.5 mph 73 % 0.0 in 0.0 W/m2 CLR
05:54 5.0 °F 0.6 °F 1012.1 in NW 14.8 mph 14.8 mph 73 % 0.0 in 0.0 W/m2 CLR
05:59 5.6 °F 1.1 °F 1012.1 in NW 16.7 mph 16.7 mph 73 % 0.0 in 0.0 W/m2 CLR
06:00 5.6 °F 1.1 °F 1012.1 in NW 16.7 mph 16.7 mph 73 % 0.0 in 0.0 W/m2 CLR
06:05 5.6 °F 1.1 °F 1012.1 in NW 14.8 mph 14.8 mph 73 % 0.0 in 0.0 W/m2 CLR
06:06 5.6 °F 1.1 °F 1012.1 in NNW 14.8 mph 14.8 mph 73 % 0.0 in 0.0 W/m2 CLR
06:11 5.6 °F 1.1 °F 1012.1 in NW 14.8 mph 14.8 mph 73 % 0.0 in 0.0 W/m2 CLR
06:12 5.6 °F 1.1 °F 1012.1 in NW 16.7 mph 16.7 mph 73 % 0.0 in 0.0 W/m2 CLR
06:13 5.6 °F 1.1 °F 1012.1 in NW 19.3 mph 19.3 mph 73 % 0.0 in 0.0 W/m2 CLR
06:18 6.1 °F 1.4 °F 1012.1 in NW 16.7 mph 16.7 mph 72 % 0.0 in 0.0 W/m2 CLR
06:23 6.1 °F 1.6 °F 1012.1 in NW 18.5 mph 18.5 mph 73 % 0.0 in 0.0 W/m2 CLR
06:25 6.1 °F 1.6 °F 1012.1 in NW 20.4 mph 20.4 mph 73 % 0.0 in 0.0 W/m2 CLR
06:28 6.1 °F 1.6 °F 1012.1 in NW 18.5 mph 18.5 mph 73 % 0.0 in 0.0 W/m2 CLR
06:31 6.1 °F 1.6 °F 1012.1 in NW 16.7 mph 16.7 mph 73 % 0.0 in 0.0 W/m2 CLR
06:33 6.1 °F 1.6 °F 1012.1 in NNW 18.5 mph 18.5 mph 73 % 0.0 in 0.0 W/m2 CLR
06:38 6.1 °F 1.8 °F 1012.1 in NW 18.5 mph 18.5 mph 74 % 0.0 in 0.0 W/m2 CLR
06:39 5.6 °F 1.3 °F 1012.1 in NW 18.5 mph 18.5 mph 74 % 0.0 in 0.0 W/m2 CLR
06:41 5.6 °F 1.3 °F 1012.1 in NW 16.7 mph 16.7 mph 74 % 0.0 in 0.0 W/m2 CLR
06:44 5.6 °F 1.3 °F 1012.1 in NNW 16.7 mph 16.7 mph 74 % 0.0 in 0.0 W/m2 CLR
06:47 5.6 °F 1.3 °F 1012.1 in NNW 22.2 mph 22.2 mph 74 % 0.0 in 0.0 W/m2 CLR
06:50 5.6 °F 1.3 °F 1012.1 in NW 18.5 mph 18.5 mph 74 % 0.0 in 0.0 W/m2 CLR
06:55 5.6 °F 1.3 °F 1012.1 in NNW 13.0 mph 13.0 mph 74 % 0.0 in 0.0 W/m2 CLR
06:57 5.6 °F 1.4 °F 1012.1 in NNW 18.5 mph 18.5 mph 75 % 0.0 in 0.0 W/m2 CLR
06:58 5.6 °F 1.4 °F 1012.1 in NW 18.5 mph 18.5 mph 75 % 0.0 in 0.0 W/m2 CLR
07:03 5.6 °F 1.4 °F 1012.1 in NW 13.0 mph 13.0 mph 75 % 0.0 in 0.0 W/m2 CLR
07:04 5.6 °F 1.4 °F 1012.1 in NNW 16.7 mph 16.7 mph 75 % 0.0 in 0.0 W/m2 CLR
07:08 5.6 °F 1.4 °F 1012.1 in NNW 14.8 mph 14.8 mph 75 % 0.0 in 0.0 W/m2 CLR
07:12 5.6 °F 1.4 °F 1012.1 in NNW 18.5 mph 18.5 mph 75 % 0.0 in 0.0 W/m2 CLR
07:13 5.6 °F 1.4 °F 1012.1 in NNW 16.7 mph 16.7 mph 75 % 0.0 in 0.0 W/m2 CLR
07:18 5.6 °F 1.4 °F 1012.4 in NNW 18.5 mph 18.5 mph 75 % 0.0 in 0.0 W/m2 CLR
07:19 5.6 °F 1.4 °F 1012.4 in NNW 18.5 mph 18.5 mph 75 % 0.0 in 0.0 W/m2 CLR
07:21 5.6 °F 1.4 °F 1012.4 in NW 18.5 mph 18.5 mph 75 % 0.0 in 0.0 W/m2 CLR
07:26 5.6 °F 1.4 °F 1012.4 in NW 14.8 mph 14.8 mph 75 % 0.0 in 0.0 W/m2 CLR
07:27 5.6 °F 1.4 °F 1012.4 in NNW 20.9 mph 20.9 mph 75 % 0.0 in 0.0 W/m2 CLR
07:32 5.6 °F 1.4 °F 1012.4 in NW 18.5 mph 18.5 mph 75 % 0.0 in 0.0 W/m2 CLR
07:37 5.6 °F 1.4 °F 1012.4 in NW 18.5 mph 18.5 mph 75 % 0.0 in 0.0 W/m2 CLR
07:43 5.6 °F 1.3 °F 1012.4 in NNW 14.8 mph 14.8 mph 74 % 0.0 in 0.0 W/m2 CLR
07:46 5.6 °F 1.4 °F 1012.4 in NW 13.0 mph 13.0 mph 75 % 0.0 in 0.0 W/m2 CLR
07:49 5.6 °F 1.3 °F 1012.4 in NW 11.3 mph 11.7 mph 74 % 0.0 in 0.0 W/m2 CLR
07:52 5.6 °F 1.4 °F 1012.8 in NW 14.8 mph 14.8 mph 75 % 0.0 in 0.0 W/m2 CLR
07:55 5.0 °F 0.9 °F 1012.8 in NW 11.3 mph 11.3 mph 75 % 0.0 in 0.0 W/m2 CLR
07:56 5.0 °F 0.9 °F 1012.8 in NW 13.0 mph 13.0 mph 75 % 0.0 in 0.0 W/m2 CLR
08:01 5.0 °F 0.9 °F 1012.8 in NW 13.0 mph 13.0 mph 75 % 0.0 in 0.0 W/m2 CLR
08:02 5.0 °F 0.9 °F 1012.8 in NW 13.0 mph 13.0 mph 75 % 0.0 in 0.0 W/m2 CLR
08:04 5.0 °F 0.9 °F 1012.8 in NW 9.3 mph 9.3 mph 75 % 0.0 in 0.0 W/m2 CLR
08:09 5.0 °F 0.9 °F 1012.8 in NW 11.1 mph 11.1 mph 75 % 0.0 in 0.0 W/m2 CLR
08:10 5.0 °F 0.9 °F 1012.8 in NW 11.1 mph 11.1 mph 75 % 0.0 in 0.0 W/m2 CLR
08:15 5.6 °F 1.4 °F 1012.8 in WNW 13.0 mph 13.0 mph 75 % 0.0 in 0.0 W/m2 OVC
08:16 5.6 °F 1.4 °F 1012.8 in NW 14.8 mph 14.8 mph 75 % 0.0 in 0.0 W/m2 OVC
08:21 5.6 °F 1.4 °F 1012.8 in NW 14.8 mph 14.8 mph 75 % 0.0 in 5.0 W/m2 OVC
08:23 5.6 °F 1.4 °F 1012.8 in WNW 16.1 mph 16.1 mph 75 % 0.0 in 5.0 W/m2 OVC
08:28 5.6 °F 1.4 °F 1012.4 in NW 18.5 mph 18.5 mph 75 % 0.0 in 5.0 W/m2 OVC
08:29 5.6 °F 1.4 °F 1012.8 in NW 18.5 mph 18.5 mph 75 % 0.0 in 7.0 W/m2 OVC
08:32 5.6 °F 1.3 °F 1012.4 in NW 16.7 mph 16.7 mph 74 % 0.0 in 9.0 W/m2 BKN
08:35 6.1 °F 1.8 °F 1012.8 in WNW 14.8 mph 14.8 mph 74 % 0.0 in 12.0 W/m2 BKN
08:40 6.1 °F 2.0 °F 1012.4 in NW 14.8 mph 14.8 mph 75 % 0.0 in 18.0 W/m2 BKN
08:41 6.1 °F 2.0 °F 1012.4 in WNW 14.8 mph 14.8 mph 75 % 0.0 in 19.0 W/m2 BKN
08:43 6.1 °F 2.0 °F 1012.4 in NW 16.7 mph 16.7 mph 75 % 0.0 in 21.0 W/m2 BKN
08:46 6.1 °F 1.8 °F 1012.8 in NW 18.5 mph 18.5 mph 74 % 0.0 in 23.0 W/m2 BKN
08:51 6.1 °F 1.8 °F 1012.8 in NW 9.3 mph 9.3 mph 74 % 0.0 in 30.0 W/m2 BKN
08:52 6.1 °F 1.8 °F 1012.8 in NW 14.5 mph 14.5 mph 74 % 0.0 in 32.0 W/m2 BKN
08:53 6.1 °F 1.8 °F 1012.8 in NW 11.1 mph 11.1 mph 74 % 0.0 in 32.0 W/m2 BKN
08:58 6.1 °F 1.8 °F 1012.8 in Calm     74 % 0.0 in 37.0 W/m2 BKN
09:03 6.1 °F 1.8 °F 1012.8 in NW 14.8 mph 14.8 mph 74 % 0.0 in 42.0 W/m2 BKN
09:04 6.1 °F 1.8 °F 1012.8 in NW 11.1 mph 11.1 mph 74 % 0.0 in 40.0 W/m2 BKN
09:09 6.1 °F 1.8 °F 1012.8 in NNW 12.9 mph 12.9 mph 74 % 0.0 in 39.0 W/m2 BKN
09:10 6.1 °F 1.8 °F 1013.1 in NW 7.4 mph 7.4 mph 74 % 0.0 in 39.0 W/m2 BKN
09:15 6.1 °F 1.8 °F 1012.8 in NW 5.6 mph 5.6 mph 74 % 0.0 in 44.0 W/m2 BKN
09:18 6.1 °F 1.6 °F 1012.8 in NW 7.4 mph 7.4 mph 73 % 0.0 in 49.0 W/m2 SCT
09:22 6.1 °F 1.6 °F 1012.8 in Calm     73 % 0.0 in 76.0 W/m2 FEW
09:27 6.1 °F 1.6 °F 1012.8 in Calm     73 % 0.0 in 72.0 W/m2 SCT
09:29 6.7 °F 2.2 °F 1012.8 in Calm     73 % 0.0 in 63.0 W/m2 FEW
09:32 6.7 °F 2.2 °F 1012.8 in Calm     73 % 0.0 in 67.0 W/m2 FEW
09:37 6.7 °F 2.2 °F 1012.8 in Calm     73 % 0.0 in 69.0 W/m2 FEW
09:42 6.7 °F 2.2 °F 1013.1 in Calm     73 % 0.0 in 90.0 W/m2 FEW
09:43 6.7 °F 2.2 °F 1013.1 in Calm     73 % 0.0 in 90.0 W/m2 FEW
09:48 6.7 °F 2.2 °F 1013.1 in Calm     73 % 0.0 in 111.0 W/m2 CLR
09:49 7.2 °F 2.7 °F 1013.1 in Calm     73 % 0.0 in 113.0 W/m2 CLR
09:54 7.2 °F 2.7 °F 1013.1 in Calm     73 % 0.0 in 127.0 W/m2 CLR
09:55 7.2 °F 2.7 °F 1013.1 in Calm     73 % 0.0 in 127.0 W/m2 CLR
10:00 7.8 °F 3.2 °F 1012.8 in Calm     73 % 0.0 in 132.0 W/m2 CLR
10:04 7.8 °F 3.2 °F 1012.8 in Calm     73 % 0.0 in 127.0 W/m2 CLR
10:05 7.8 °F 3.2 °F 1012.8 in Calm     73 % 0.0 in 123.0 W/m2 CLR
10:09 7.8 °F 3.1 °F 1012.8 in NW 6.4 mph 6.4 mph 72 % 0.0 in 134.0 W/m2 CLR
10:14 7.8 °F 3.1 °F 1013.1 in NNW 13.0 mph 13.0 mph 72 % 0.0 in 144.0 W/m2 CLR
10:16 7.8 °F 3.1 °F 1013.1 in North 13.0 mph 13.0 mph 72 % 0.0 in 167.0 W/m2 CLR
10:20 8.3 °F 3.6 °F 1012.8 in North 18.5 mph 18.5 mph 72 % 0.0 in 146.0 W/m2 CLR
10:22 8.3 °F 3.4 °F 1013.1 in North 18.5 mph 18.5 mph 71 % 0.0 in 139.0 W/m2 CLR
10:23 8.3 °F 3.4 °F 1013.1 in North 14.5 mph 14.5 mph 71 % 0.0 in 130.0 W/m2 CLR
10:27 8.3 °F 3.4 °F 1013.1 in North 20.4 mph 20.4 mph 71 % 0.0 in 128.0 W/m2 CLR
10:28 8.3 °F 3.4 °F 1013.1 in NNW 16.7 mph 16.7 mph 71 % 0.0 in 142.0 W/m2 CLR
10:32 8.3 °F 3.4 °F 1013.1 in NW 18.5 mph 18.5 mph 71 % 0.0 in 162.0 W/m2 CLR
10:37 8.3 °F 3.4 °F 1013.1 in NNW 18.5 mph 18.5 mph 71 % 0.0 in 181.0 W/m2 CLR
10:39 8.3 °F 3.4 °F 1013.1 in NNW 18.5 mph 18.5 mph 71 % 0.0 in 183.0 W/m2 CLR
10:44 8.3 °F 3.4 °F 1013.1 in North 17.7 mph 17.7 mph 71 % 0.0 in 155.0 W/m2 CLR
10:49 8.9 °F 3.9 °F 1013.1 in NNW 18.5 mph 18.5 mph 71 % 0.0 in 118.0 W/m2 CLR
10:55 8.3 °F 3.2 °F 1013.4 in North 18.5 mph 18.5 mph 70 % 0.0 in 91.0 W/m2 CLR
11:00 8.3 °F 3.4 °F 1013.1 in North 18.5 mph 18.5 mph 71 % 0.0 in 95.0 W/m2 CLR
11:01 8.3 °F 3.4 °F 1013.1 in North 18.5 mph 18.5 mph 71 % 0.0 in 90.0 W/m2 CLR
11:06 8.3 °F 3.2 °F 1013.4 in NNW 18.5 mph 18.5 mph 70 % 0.0 in 86.0 W/m2 CLR
11:11 8.3 °F 3.4 °F 1013.4 in North 16.7 mph 16.7 mph 71 % 0.0 in 69.0 W/m2 FEW
11:15 8.3 °F 3.4 °F 1013.1 in North 14.8 mph 14.8 mph 71 % 0.0 in 88.0 W/m2 FEW
11:18 8.3 °F 3.4 °F 1013.1 in North 16.7 mph 16.7 mph 71 % 0.0 in 104.0 W/m2 FEW
11:20 8.3 °F 3.4 °F 1013.1 in North 14.8 mph 14.8 mph 71 % 0.0 in 95.0 W/m2 FEW
11:25 8.3 °F 3.4 °F 1013.1 in North 11.1 mph 11.1 mph 71 % 0.0 in 114.0 W/m2 CLR
11:26 8.3 °F 3.4 °F 1013.1 in NNW 11.1 mph 11.1 mph 71 % 0.0 in 114.0 W/m2 CLR
11:31 8.3 °F 3.4 °F 1012.8 in Calm     71 % 0.0 in 130.0 W/m2 CLR
11:33 8.3 °F 3.4 °F 1012.8 in Calm     71 % 0.0 in 139.0 W/m2 CLR
11:34 8.3 °F 3.4 °F 1012.8 in Calm     71 % 0.0 in 144.0 W/m2 CLR
11:39 8.9 °F 3.7 °F 1012.8 in Calm     70 % 0.0 in 181.0 W/m2 CLR
11:40 8.9 °F 3.7 °F 1012.8 in Calm     70 % 0.0 in 181.0 W/m2 CLR
11:45 8.9 °F 3.7 °F 1012.8 in Calm     70 % 0.0 in 146.0 W/m2 CLR
11:49 8.9 °F 3.7 °F 1012.8 in Calm     70 % 0.0 in 105.0 W/m2 CLR
11:52 8.9 °F 3.7 °F 1012.8 in Calm     70 % 0.0 in 91.0 W/m2 CLR
11:57 8.9 °F 3.5 °F 1012.8 in Calm     69 % 0.0 in 102.0 W/m2 CLR
12:00 8.9 °F 3.5 °F 1012.8 in Calm     69 % 0.0 in 118.0 W/m2 CLR
12:05 8.9 °F 3.5 °F 1012.8 in Calm     69 % 0.0 in 109.0 W/m2 CLR
12:07 8.9 °F 3.5 °F 1012.8 in Calm     69 % 0.0 in 116.0 W/m2 CLR
12:11 8.9 °F 3.5 °F 1012.8 in Calm     69 % 0.0 in 139.0 W/m2 CLR
12:12 8.9 °F 3.5 °F 1012.8 in Calm     69 % 0.0 in 146.0 W/m2 CLR
12:16 9.4 °F 4.1 °F 1012.8 in Calm     69 % 0.0 in 190.0 W/m2 CLR
12:17 9.4 °F 4.1 °F 1012.8 in Calm     69 % 0.0 in 200.0 W/m2 CLR
12:22 9.4 °F 4.2 °F 1012.4 in Calm     70 % 0.0 in 216.0 W/m2 CLR
12:24 9.4 °F 3.8 °F 1012.4 in Calm     68 % 0.0 in 221.0 W/m2 CLR
12:29 10.0 °F 4.3 °F 1012.4 in Calm     68 % 0.0 in 248.0 W/m2 CLR
12:30 10.0 °F 4.3 °F 1012.4 in Calm     68 % 0.0 in 248.0 W/m2 CLR
12:31 10.0 °F 4.6 °F 1012.4 in Calm     69 % 0.0 in 258.0 W/m2 CLR
12:36 10.0 °F 4.6 °F 1012.1 in Calm     69 % 0.0 in 248.0 W/m2 CLR
12:38 10.0 °F 4.3 °F 1012.1 in Calm     68 % 0.0 in 225.0 W/m2 CLR
12:43 10.0 °F 4.6 °F 1012.1 in Calm     69 % 0.0 in 172.0 W/m2 CLR
12:48 10.0 °F 4.8 °F 1012.1 in Calm     70 % 0.0 in 211.0 W/m2 CLR
12:49 10.0 °F 4.8 °F 1012.1 in Calm     70 % 0.0 in 211.0 W/m2 CLR
12:50 10.0 °F 4.8 °F 1012.1 in Calm     70 % 0.0 in 178.0 W/m2 CLR
12:54 10.0 °F 4.8 °F 1011.7 in Calm     70 % 0.0 in 160.0 W/m2 CLR
12:57 10.0 °F 5.0 °F 1011.7 in Calm     71 % 0.0 in 188.0 W/m2 CLR
13:01 10.0 °F 5.2 °F 1011.7 in Calm     72 % 0.0 in 237.0 W/m2 CLR
13:06 10.0 °F 5.2 °F 1011.7 in Calm     72 % 0.0 in 158.0 W/m2 CLR
13:07 10.0 °F 5.2 °F 1011.7 in Calm     72 % 0.0 in 116.0 W/m2 CLR
13:08 10.0 °F 5.2 °F 1011.7 in Calm     72 % 0.0 in 95.0 W/m2 CLR
13:13 10.0 °F 5.4 °F 1011.7 in Calm     73 % 0.0 in 121.0 W/m2 CLR
13:16 10.0 °F 5.4 °F 1011.7 in Calm     73 % 0.0 in 121.0 W/m2 CLR
13:19 10.0 °F 5.4 °F 1011.7 in Calm     73 % 0.0 in 132.0 W/m2 CLR
13:25 10.0 °F 5.4 °F 1011.7 in Calm     73 % 0.0 in 111.0 W/m2 CLR
13:30 10.0 °F 5.6 °F 1011.4 in Calm     74 % 0.0 in 137.0 W/m2 CLR
13:32 10.0 °F 5.6 °F 1011.4 in Calm     74 % 0.0 in 158.0 W/m2 CLR
13:33 10.0 °F 5.6 °F 1011.4 in Calm     74 % 0.0 in 158.0 W/m2 CLR
13:38 10.0 °F 5.4 °F 1011.1 in Calm     73 % 0.0 in 193.0 W/m2 CLR
13:39 10.0 °F 5.4 °F 1011.1 in Calm     73 % 0.0 in 211.0 W/m2 CLR
13:45 10.6 °F 5.7 °F 1011.1 in Calm     72 % 0.0 in 153.0 W/m2 CLR
13:51 10.6 °F 5.7 °F 1011.1 in Calm     72 % 0.0 in 141.0 W/m2 CLR
13:52 10.6 °F 5.7 °F 1011.1 in Calm     72 % 0.0 in 146.0 W/m2 CLR
13:57 10.6 °F 5.7 °F 1011.1 in Calm     72 % 0.0 in 195.0 W/m2 CLR
14:02 10.6 °F 5.7 °F 1010.7 in Calm     72 % 0.0 in 181.0 W/m2 CLR
14:03 10.6 °F 5.7 °F 1011.1 in Calm     72 % 0.0 in 181.0 W/m2 CLR
14:08 11.1 °F 6.3 °F 1011.1 in Calm     72 % 0.0 in 190.0 W/m2 CLR
14:09 11.1 °F 6.3 °F 1011.1 in NNW 1.9 mph 1.9 mph 72 % 0.0 in 160.0 W/m2 CLR
14:14 11.1 °F 6.1 °F 1011.1 in Calm     71 % 0.0 in 172.0 W/m2 CLR
14:15 11.1 °F 6.1 °F 1011.1 in NW 3.7 mph 3.7 mph 71 % 0.0 in 192.0 W/m2 CLR
14:20 11.1 °F 6.1 °F 1011.1 in NNW 4.8 mph 4.8 mph 71 % 0.0 in 167.0 W/m2 CLR
14:25 11.1 °F 6.1 °F 1011.1 in Calm     71 % 0.0 in 146.0 W/m2 CLR
14:26 11.1 °F 5.8 °F 1011.1 in Calm     70 % 0.0 in 148.0 W/m2 CLR
14:31 11.1 °F 5.8 °F 1011.1 in NW 1.9 mph   70 % 0.0 in 107.0 W/m2 CLR
14:32 11.1 °F 6.1 °F 1011.1 in Calm     71 % 0.0 in 116.0 W/m2 CLR
14:34 11.1 °F 6.1 °F 1010.7 in Calm     71 % 0.0 in 111.0 W/m2 CLR
14:37 11.1 °F 6.1 °F 1010.7 in Calm     71 % 0.0 in 91.0 W/m2 CLR
14:41 11.1 °F 5.8 °F 1010.7 in WNW 4.8 mph 4.8 mph 70 % 0.0 in 162.0 W/m2 CLR
14:43 11.1 °F 5.8 °F 1010.7 in NW 5.6 mph 5.6 mph 70 % 0.0 in 151.0 W/m2 CLR
14:48 11.1 °F 6.1 °F 1010.7 in Calm     71 % 0.0 in 105.0 W/m2 CLR
14:53 11.1 °F 6.1 °F 1010.7 in Calm     71 % 0.0 in 128.0 W/m2 CLR
14:55 11.1 °F 6.1 °F 1010.7 in Calm     71 % 0.0 in 169.0 W/m2 CLR
14:59 11.1 °F 6.1 °F 1010.4 in Calm     71 % 0.0 in 137.0 W/m2 CLR
15:04 11.1 °F 6.1 °F 1010.7 in NNW 1.6 mph   71 % 0.0 in 373.0 W/m2 CLR
15:08 11.7 °F 6.4 °F 1010.7 in North 5.6 mph 5.6 mph 70 % 0.0 in 441.0 W/m2 CLR
15:14 12.2 °F 6.7 °F 1010.7 in NNW 5.6 mph 5.6 mph 69 % 0.0 in 213.0 W/m2 CLR
15:19 12.8 °F 6.8 °F 1010.7 in NNW 18.5 mph 18.5 mph 67 % 0.0 in 190.0 W/m2 CLR
15:21 12.8 °F 7.2 °F 1010.7 in NNW 11.1 mph 11.1 mph 69 % 0.0 in 274.0 W/m2 CLR
15:26 12.2 °F 6.3 °F 1010.7 in North 9.7 mph 9.7 mph 67 % 0.0 in 160.0 W/m2 CLR
15:27 12.2 °F 6.3 °F 1010.7 in NNE 12.9 mph 12.9 mph 67 % 0.0 in 160.0 W/m2 CLR
15:28 12.2 °F 6.3 °F 1010.7 in NNE 18.5 mph 18.5 mph 67 % 0.0 in 169.0 W/m2 CLR
15:33 11.7 °F 5.9 °F 1011.1 in North 12.9 mph 12.9 mph 68 % 0.0 in 127.0 W/m2 CLR
15:38 11.1 °F 5.2 °F 1011.1 in ENE 14.8 mph 14.8 mph 67 % 0.0 in 130.0 W/m2 CLR
15:39 11.1 °F 5.2 °F 1011.1 in NE 14.8 mph 14.8 mph 67 % 0.0 in 125.0 W/m2 CLR
15:40 11.1 °F 5.2 °F 1011.1 in NE 17.7 mph 17.7 mph 67 % 0.0 in 125.0 W/m2 CLR
15:45 11.1 °F 5.2 °F 1011.1 in NE 16.7 mph 16.7 mph 67 % 0.0 in 107.0 W/m2 CLR
15:46 11.1 °F 5.2 °F 1011.1 in NE 19.3 mph 19.3 mph 67 % 0.0 in 58.0 W/m2 CLR
15:50 11.1 °F 5.4 °F 1011.4 in NE 20.4 mph 20.4 mph 68 % 0.0 in 146.0 W/m2 CLR
15:54 10.6 °F 4.9 °F 1011.4 in NE 16.7 mph 16.7 mph 68 % 0.0 in 223.0 W/m2 CLR
15:55 10.6 °F 4.9 °F 1011.4 in NE 16.1 mph 16.1 mph 68 % 0.0 in 39.0 W/m2 CLR
15:59 10.6 °F 4.9 °F 1011.4 in NNE 13.0 mph 13.0 mph 68 % 0.0 in 128.0 W/m2 FEW
16:00 10.6 °F 5.1 °F 1011.4 in NNE 13.0 mph 13.0 mph 69 % 0.0 in 128.0 W/m2 FEW
16:02 10.6 °F 5.1 °F 1011.4 in NNE 13.0 mph   69 % 0.0 in 186.0 W/m2 FEW
16:07 10.0 °F 4.6 °F 1011.4 in Calm     69 % 0.0 in 84.0 W/m2 FEW
16:08 10.0 °F 4.6 °F 1011.4 in Calm     69 % 0.0 in 84.0 W/m2 FEW
16:09 10.0 °F 4.6 °F 1011.4 in Calm     69 % 0.0 in 39.0 W/m2 FEW
16:13 10.0 °F 4.8 °F 1011.4 in NNE 11.3 mph 11.3 mph 70 % 0.0 in 25.0 W/m2 SCT
16:16 10.0 °F 4.8 °F 1011.7 in North 14.5 mph 14.5 mph 70 % 0.0 in 32.0 W/m2 BKN
16:20 9.4 °F 4.4 °F 1011.7 in NNW 16.7 mph 16.7 mph 71 % 0.0 in 28.0 W/m2 BKN
16:23 9.4 °F 4.4 °F 1012.1 in North 13.0 mph 13.0 mph 71 % 0.0 in 30.0 W/m2 BKN
16:25 9.4 °F 4.7 °F 1012.1 in NNW 16.7 mph 16.7 mph 72 % 0.0 in 37.0 W/m2 BKN
16:30 9.4 °F 4.7 °F 1012.1 in NNW 7.4 mph 7.4 mph 72 % 0.0 in 40.0 W/m2 BKN
16:31 9.4 °F 4.7 °F 1012.1 in NNW 9.3 mph 9.3 mph 72 % 0.0 in 40.0 W/m2 BKN
16:33 9.4 °F 4.8 °F 1012.1 in Calm     73 % 0.0 in 39.0 W/m2 BKN
16:38 9.4 °F 4.8 °F 1012.1 in Calm     73 % 0.0 in 37.0 W/m2 BKN
16:43 8.9 °F 4.3 °F 1012.1 in Calm     73 % 0.0 in 26.0 W/m2 BKN
16:44 8.9 °F 4.3 °F 1012.1 in NW 1.9 mph 1.9 mph 73 % 0.0 in 26.0 W/m2 BKN
16:49 8.9 °F 4.5 °F 1012.1 in Calm   1.6 mph 74 % 0.0 in 49.0 W/m2 SCT
16:54 8.9 °F 4.5 °F 1012.1 in NW 8.0 mph 8.0 mph 74 % 0.0 in 32.0 W/m2 BKN
16:55 8.9 °F 4.5 °F 1012.1 in NNW 8.0 mph 8.0 mph 74 % 0.0 in 32.0 W/m2 BKN
16:57 8.9 °F 4.5 °F 1012.1 in NW 12.9 mph 12.9 mph 74 % 0.0 in 37.0 W/m2 BKN
17:01 8.9 °F 4.5 °F 1012.1 in NW 13.0 mph 13.0 mph 74 % 0.0 in 30.0 W/m2 BKN
17:02 8.9 °F 4.5 °F 1012.1 in WNW 8.0 mph 8.0 mph 74 % 0.0 in 21.0 W/m2 BKN
17:07 8.9 °F 4.5 °F 1012.1 in Calm     74 % 0.0 in 16.0 W/m2 BKN
17:08 8.9 °F 4.5 °F 1012.1 in Calm     74 % 0.0 in 18.0 W/m2 BKN
17:12 8.9 °F 4.5 °F 1012.1 in Calm     74 % 0.0 in 16.0 W/m2 BKN
17:14 8.9 °F 4.5 °F 1012.1 in Calm     74 % 0.0 in 14.0 W/m2 BKN
17:19 8.9 °F 4.7 °F 1012.1 in WNW 5.6 mph 5.6 mph 75 % 0.0 in 11.0 W/m2 BKN
17:21 8.9 °F 4.5 °F 1012.1 in WNW 9.3 mph 9.3 mph 74 % 0.0 in 11.0 W/m2 BKN
17:26 8.9 °F 4.7 °F 1012.4 in WNW 11.1 mph 11.1 mph 75 % 0.0 in 11.0 W/m2 BKN
17:27 8.9 °F 4.7 °F 1012.4 in NW 8.0 mph 8.0 mph 75 % 0.0 in 7.0 W/m2 BKN
17:32 8.9 °F 4.7 °F 1012.4 in NW 16.7 mph 16.7 mph 75 % 0.0 in 5.0 W/m2 OVC
17:37 8.9 °F 4.7 °F 1012.4 in WNW 14.8 mph 14.8 mph 75 % 0.0 in 0.0 W/m2 OVC
17:38 8.9 °F 4.7 °F 1012.8 in WNW 18.5 mph 18.5 mph 75 % 0.0 in 0.0 W/m2 OVC
17:43 8.9 °F 4.7 °F 1012.8 in WNW 16.7 mph 16.7 mph 75 % 0.0 in 0.0 W/m2 OVC
17:44 8.9 °F 4.7 °F 1012.8 in WNW 16.7 mph 16.7 mph 75 % 0.0 in 0.0 W/m2 OVC
17:45 8.9 °F 4.7 °F 1012.8 in NW 16.7 mph 16.7 mph 75 % 0.0 in 0.0 W/m2 OVC
17:50 8.9 °F 4.7 °F 1013.1 in NW 16.7 mph 16.7 mph 75 % 0.0 in 0.0 W/m2 CLR
17:55 8.9 °F 4.7 °F 1013.1 in WNW 16.7 mph 16.7 mph 75 % 0.0 in 0.0 W/m2 CLR
18:00 8.9 °F 4.7 °F 1013.1 in NW 18.5 mph 18.5 mph 75 % 0.0 in 0.0 W/m2 CLR
18:01 8.9 °F 4.7 °F 1013.1 in WNW 17.7 mph 17.7 mph 75 % 0.0 in 0.0 W/m2 CLR
18:06 8.9 °F 4.7 °F 1013.1 in NW 16.7 mph 16.7 mph 75 % 0.0 in 0.0 W/m2 CLR
18:07 8.9 °F 4.7 °F 1013.1 in NW 16.7 mph 16.7 mph 75 % 0.0 in 0.0 W/m2 CLR
18:12 8.9 °F 4.7 °F 1013.1 in WNW 18.5 mph 18.5 mph 75 % 0.0 in 0.0 W/m2 CLR
18:14 8.9 °F 4.5 °F 1013.1 in NW 20.9 mph 20.9 mph 74 % 0.0 in 0.0 W/m2 CLR
18:19 8.9 °F 4.5 °F 1013.4 in NW 18.5 mph 18.5 mph 74 % 0.0 in 0.0 W/m2 CLR
18:20 8.9 °F 4.5 °F 1013.4 in NNW 16.7 mph 16.7 mph 74 % 0.0 in 0.0 W/m2 CLR
18:21 8.9 °F 4.5 °F 1013.4 in NW 22.5 mph 22.5 mph 74 % 0.0 in 0.0 W/m2 CLR
18:26 8.9 °F 4.5 °F 1013.4 in NW 16.7 mph 16.7 mph 74 % 0.0 in 0.0 W/m2 CLR
18:31 8.9 °F 4.5 °F 1013.4 in NNW 13.0 mph 13.0 mph 74 % 0.0 in 0.0 W/m2 CLR
18:33 8.9 °F 4.7 °F 1013.8 in NW 19.3 mph 19.3 mph 75 % 0.0 in 0.0 W/m2 CLR
18:35 8.9 °F 4.7 °F 1013.8 in NNW 22.2 mph 22.2 mph 75 % 0.0 in 0.0 W/m2 CLR
18:38 8.9 °F 4.7 °F 1013.8 in North 17.7 mph 17.7 mph 75 % 0.0 in 0.0 W/m2 CLR
18:43 8.9 °F 4.7 °F 1013.8 in NW 16.7 mph 16.7 mph 75 % 0.0 in 0.0 W/m2 CLR
18:44 8.9 °F 4.7 °F 1013.8 in NW 18.5 mph 18.5 mph 75 % 0.0 in 0.0 W/m2 CLR
18:45 8.9 °F 4.7 °F 1013.8 in NW 17.7 mph 17.7 mph 75 % 0.0 in 0.0 W/m2 CLR
18:49 8.9 °F 4.9 °F 1014.1 in NW 18.5 mph 18.5 mph 76 % 0.0 in 0.0 W/m2 CLR
18:52 8.9 °F 4.7 °F 1013.8 in NW 18.5 mph 18.5 mph 75 % 0.0 in 0.0 W/m2 CLR
18:56 8.9 °F 4.9 °F 1013.8 in NW 18.5 mph 18.5 mph 76 % 0.0 in 0.0 W/m2 CLR
19:01 8.9 °F 4.9 °F 1014.1 in NW 16.7 mph 16.7 mph 76 % 0.0 in 0.0 W/m2 CLR
19:04 8.3 °F 4.3 °F 1014.1 in NW 13.0 mph 13.4 mph 76 % 0.0 in 0.0 W/m2 CLR
19:09 8.3 °F 4.3 °F 1014.4 in NW 11.3 mph 11.3 mph 76 % 0.0 in 0.0 W/m2 CLR
19:11 8.3 °F 4.3 °F 1014.4 in NW 20.4 mph 20.4 mph 76 % 0.0 in 0.0 W/m2 CLR
19:16 8.3 °F 4.6 °F 1014.4 in WNW 14.8 mph 14.8 mph 77 % 0.0 in 0.0 W/m2 CLR
19:21 8.3 °F 4.6 °F 1014.4 in NW 11.1 mph 11.1 mph 77 % 0.0 in 0.0 W/m2 CLR
19:22 8.3 °F 4.6 °F 1014.4 in WNW 13.0 mph 13.0 mph 77 % 0.0 in 0.0 W/m2 CLR
19:27 8.3 °F 4.6 °F 1014.4 in WNW 11.3 mph 11.3 mph 77 % 0.0 in 0.0 W/m2 CLR
19:32 7.8 °F 4.0 °F 1014.4 in NW 13.0 mph 13.0 mph 77 % 0.0 in 0.0 W/m2 CLR
19:34 7.8 °F 4.0 °F 1014.4 in WNW 14.5 mph 14.5 mph 77 % 0.0 in 0.0 W/m2 CLR
19:37 7.8 °F 4.2 °F 1014.4 in NW 14.8 mph 14.8 mph 78 % 0.0 in 0.0 W/m2 CLR
19:42 7.8 °F 4.2 °F 1014.8 in NW 14.8 mph 14.8 mph 78 % 0.0 in 0.0 W/m2 CLR
19:45 7.8 °F 4.2 °F 1014.8 in NW 14.8 mph 14.8 mph 78 % 0.0 in 0.0 W/m2 CLR
19:50 7.2 °F 3.7 °F 1014.8 in NW 14.8 mph 14.8 mph 78 % 0.0 in 0.0 W/m2 CLR
19:51 7.2 °F 3.7 °F 1014.8 in NW 14.8 mph 14.8 mph 78 % 0.0 in 0.0 W/m2 CLR
19:56 7.2 °F 3.7 °F 1014.8 in NW 13.0 mph 13.0 mph 78 % 0.0 in 0.0 W/m2 CLR
19:57 7.2 °F 3.7 °F 1014.8 in NW 11.3 mph 11.4 mph 78 % 0.0 in 0.0 W/m2 CLR
20:02 6.7 °F 3.1 °F 1014.8 in NW 13.0 mph 13.0 mph 78 % 0.0 in 0.0 W/m2 CLR
20:07 6.7 °F 3.3 °F 1014.8 in WNW 13.0 mph 13.0 mph 79 % 0.0 in 0.0 W/m2 CLR
20:08 6.7 °F 3.3 °F 1014.8 in WNW 9.7 mph 9.7 mph 79 % 0.0 in 0.0 W/m2 CLR
20:13 6.7 °F 3.4 °F 1014.8 in Calm     80 % 0.0 in 0.0 W/m2 CLR
20:14 6.7 °F 3.4 °F 1014.8 in Calm     80 % 0.0 in 0.0 W/m2 CLR
20:19 6.7 °F 3.4 °F 1015.1 in Calm     80 % 0.0 in 0.0 W/m2 CLR
20:21 6.7 °F 3.4 °F 1015.1 in Calm     80 % 0.0 in 0.0 W/m2 CLR
20:25 6.7 °F 3.3 °F 1015.1 in Calm     79 % 0.0 in 0.0 W/m2 CLR
20:26 6.7 °F 3.4 °F 1015.1 in Calm     80 % 0.0 in 0.0 W/m2 CLR
20:31 6.7 °F 3.4 °F 1015.5 in NW 14.8 mph 14.8 mph 80 % 0.0 in 0.0 W/m2 CLR
20:32 6.7 °F 3.6 °F 1015.5 in NW 16.7 mph 16.7 mph 81 % 0.0 in 0.0 W/m2 CLR
20:34 6.7 °F 3.8 °F 1015.5 in NW 16.1 mph 16.1 mph 82 % 0.0 in 0.0 W/m2 CLR
20:37 7.2 °F 4.2 °F 1015.5 in NW 19.3 mph 19.3 mph 81 % 0.0 in 0.0 W/m2 CLR
20:42 7.2 °F 3.8 °F 1015.5 in NW 18.5 mph 18.5 mph 79 % 0.0 in 0.0 W/m2 CLR
20:44 7.2 °F 3.8 °F 1015.5 in WNW 18.5 mph 18.5 mph 79 % 0.0 in 0.0 W/m2 CLR
20:49 7.2 °F 3.7 °F 1015.5 in WNW 18.5 mph 18.5 mph 78 % 0.0 in 0.0 W/m2 CLR
20:54 7.2 °F 3.7 °F 1015.5 in NW 18.5 mph 18.5 mph 78 % 0.0 in 0.0 W/m2 CLR
20:55 7.2 °F 3.7 °F 1015.5 in NW 18.5 mph 18.5 mph 78 % 0.0 in 0.0 W/m2 CLR
21:00 7.2 °F 3.7 °F 1015.8 in NW 18.5 mph 18.5 mph 78 % 0.0 in 0.0 W/m2 CLR
21:02 7.2 °F 3.7 °F 1015.8 in NW 20.4 mph 20.4 mph 78 % 0.0 in 0.0 W/m2 CLR
21:07 7.8 °F 4.2 °F 1015.8 in NW 17.7 mph 17.7 mph 78 % 0.0 in 0.0 W/m2 CLR
21:13 7.8 °F 4.0 °F 1016.1 in NW 22.2 mph 22.2 mph 77 % 0.0 in 0.0 W/m2 CLR
21:18 8.3 °F 4.6 °F 1016.1 in NW 25.9 mph 25.9 mph 77 % 0.0 in 0.0 W/m2 CLR
21:19 8.3 °F 4.6 °F 1016.1 in NW 22.2 mph 22.2 mph 77 % 0.0 in 0.0 W/m2 CLR
21:20 8.3 °F 4.6 °F 1016.1 in NW 22.5 mph 22.5 mph 77 % 0.0 in 0.0 W/m2 CLR
21:25 8.3 °F 4.3 °F 1016.5 in NNW 22.2 mph 22.2 mph 76 % 0.0 in 0.0 W/m2 CLR
21:26 8.3 °F 4.3 °F 1016.5 in NW 22.2 mph 22.2 mph 76 % 0.0 in 0.0 W/m2 CLR
21:30 8.3 °F 4.6 °F 1016.5 in NW 20.4 mph 21.2 mph 77 % 0.0 in 0.0 W/m2 CLR
21:35 8.3 °F 4.6 °F 1016.5 in NW 25.9 mph 25.9 mph 77 % 0.0 in 0.0 W/m2 CLR
21:40 8.3 °F 4.3 °F 1016.5 in NW 31.5 mph 31.5 mph 76 % 0.0 in 0.0 W/m2 CLR
21:41 8.3 °F 4.3 °F 1016.8 in NW 31.5 mph 31.5 mph 76 % 0.0 in 0.0 W/m2 CLR
21:46 8.9 °F 4.9 °F 1016.8 in NW 27.8 mph 27.8 mph 76 % 0.0 in 0.0 W/m2 CLR
21:48 8.9 °F 5.1 °F 1016.8 in NW 24.1 mph 24.1 mph 77 % 0.0 in 0.0 W/m2 CLR
21:52 8.9 °F 5.1 °F 1016.8 in NNW 35.2 mph 35.2 mph 77 % 0.0 in 0.0 W/m2 CLR
21:53 8.9 °F 5.1 °F 1016.8 in NNW 35.2 mph 35.2 mph 77 % 0.0 in 0.0 W/m2 CLR
21:57 8.9 °F 4.9 °F 1016.8 in NW 31.5 mph 31.5 mph 76 % 0.0 in 0.0 W/m2 CLR
22:01 8.9 °F 4.9 °F 1016.8 in WNW 25.9 mph 25.9 mph 76 % 0.0 in 0.0 W/m2 CLR
22:02 8.9 °F 4.9 °F 1016.8 in NW 24.1 mph 24.1 mph 76 % 0.0 in 0.0 W/m2 CLR
22:06 8.9 °F 4.7 °F 1016.8 in NW 25.9 mph 25.9 mph 75 % 0.0 in 0.0 W/m2 CLR
22:07 8.9 °F 4.9 °F 1016.8 in WNW 22.2 mph 22.2 mph 76 % 0.0 in 0.0 W/m2 CLR
22:08 8.9 °F 4.9 °F 1016.8 in WNW 24.1 mph 24.1 mph 76 % 0.0 in 0.0 W/m2 CLR
22:12 8.9 °F 4.7 °F 1016.8 in WNW 25.9 mph 25.9 mph 75 % 0.0 in 0.0 W/m2 CLR
22:17 8.9 °F 4.9 °F 1017.2 in WNW 24.1 mph 24.1 mph 76 % 0.0 in 0.0 W/m2 CLR
22:22 8.3 °F 4.3 °F 1017.2 in NW 25.9 mph 25.9 mph 76 % 0.0 in 0.0 W/m2 CLR
22:25 8.3 °F 4.3 °F 1017.2 in NW 22.2 mph 22.2 mph 76 % 0.0 in 0.0 W/m2 CLR
22:30 8.3 °F 4.3 °F 1017.2 in NW 27.8 mph 27.8 mph 76 % 0.0 in 0.0 W/m2 CLR
22:34 8.9 °F 4.9 °F 1017.5 in NNW 22.2 mph 22.2 mph 76 % 0.0 in 0.0 W/m2 CLR
22:37 8.9 °F 4.9 °F 1017.5 in NW 25.9 mph 25.9 mph 76 % 0.0 in 0.0 W/m2 CLR
22:41 8.9 °F 4.9 °F 1017.5 in NW 31.5 mph 31.5 mph 76 % 0.0 in 0.0 W/m2 CLR
22:44 8.9 °F 4.7 °F 1017.5 in NW 31.5 mph 31.5 mph 75 % 0.0 in 0.0 W/m2 CLR
22:49 8.9 °F 4.7 °F 1017.8 in NW 20.9 mph 20.9 mph 75 % 0.0 in 0.0 W/m2 CLR
22:52 8.9 °F 4.9 °F 1017.8 in WNW 18.5 mph 18.5 mph 76 % 0.0 in 0.0 W/m2 CLR
22:57 8.9 °F 4.9 °F 1018.2 in NW 27.8 mph 27.8 mph 76 % 0.0 in 0.0 W/m2 CLR
22:58 8.9 °F 4.9 °F 1018.2 in NW 24.1 mph 24.1 mph 76 % 0.0 in 0.0 W/m2 CLR
23:02 8.9 °F 4.9 °F 1018.2 in NNW 25.9 mph 25.9 mph 76 % 0.0 in 0.0 W/m2 CLR
23:04 8.9 °F 4.9 °F 1018.2 in NW 24.1 mph 24.1 mph 76 % 0.0 in 0.0 W/m2 CLR
23:08 8.3 °F 4.3 °F 1018.2 in NW 20.4 mph 20.4 mph 76 % 0.0 in 0.0 W/m2 CLR
23:13 8.3 °F 4.6 °F 1018.5 in NW 24.1 mph 24.1 mph 77 % 0.0 in 0.0 W/m2 CLR
23:14 8.3 °F 4.6 °F 1018.5 in NW 24.1 mph 24.1 mph 77 % 0.0 in 0.0 W/m2 CLR
23:19 8.3 °F 4.3 °F 1018.5 in WNW 18.5 mph 18.5 mph 76 % 0.0 in 0.0 W/m2 CLR
23:20 8.3 °F 4.3 °F 1018.2 in NW 20.9 mph 20.9 mph 76 % 0.0 in 0.0 W/m2 CLR
23:22 8.3 °F 4.3 °F 1018.5 in NW 31.5 mph 31.5 mph 76 % 0.0 in 0.0 W/m2 CLR
23:26 8.3 °F 4.3 °F 1018.5 in WNW 24.1 mph 24.1 mph 76 % 0.0 in 0.0 W/m2 CLR
23:30 8.3 °F 4.3 °F 1018.5 in WNW 22.5 mph 22.5 mph 76 % 0.0 in 0.0 W/m2 CLR
23:31 8.3 °F 4.3 °F 1018.5 in NW 24.1 mph 24.1 mph 76 % 0.0 in 0.0 W/m2 CLR
23:36 8.3 °F 4.3 °F 1018.5 in NW 18.5 mph 18.5 mph 76 % 0.0 in 0.0 W/m2 CLR
23:37 8.3 °F 4.3 °F 1018.5 in NW 19.3 mph 19.3 mph 76 % 0.0 in 0.0 W/m2 CLR
23:42 8.3 °F 4.3 °F 1018.5 in NNW 22.2 mph 22.2 mph 76 % 0.0 in 0.0 W/m2 CLR
23:47 8.3 °F 4.3 °F 1018.5 in NW 18.5 mph 18.5 mph 76 % 0.0 in 0.0 W/m2 CLR
23:49 8.3 °F 4.3 °F 1018.5 in NW 18.5 mph 18.5 mph 76 % 0.0 in 0.0 W/m2 CLR
23:51 8.3 °F 4.3 °F 1018.5 in NNW 22.2 mph 22.2 mph 76 % 0.0 in 0.0 W/m2 CLR
23:55 8.3 °F 4.3 °F 1018.5 in NNW 22.5 mph 22.5 mph 76 % 0.0 in 0.0 W/m2 CLR
Lo Temps de Massalio
Compliments of Weather Underground - 1.75 mb